Time;durP1;ratioP1;P1;durP2;ratioP2;P2;SDS_P1;SDS_P2;PMS_P1;PMS_P2;Temp;Humidity;BMP_temperature;BMP_pressure;BME280_temperature;BME280_humidity;BME280_pressure;Samples;Min_cycle;Max_cycle;Signal;HPM_P1;HPM_P2
2021/10/08 00:02:05;;;;;;;67.05;31.83;;;;;;;17.45;54.74;96306.41;4982398;28;20019;-71
2021/10/08 00:04:31;;;;;;;54.05;27.35;;;;;;;16.59;54.70;96307.97;4987151;28;20121;-73
2021/10/08 00:06:56;;;;;;;46.78;26.80;;;;;;;16.90;54.99;96315.16;4988781;28;20042;-72
2021/10/08 00:09:27;;;;;;;44.17;25.55;;;;;;;16.98;54.81;96298.22;4988315;28;20038;-74
2021/10/08 00:11:53;;;;;;;59.30;29.83;;;;;;;17.24;55.42;96303.59;4978256;28;20046;-72
2021/10/08 00:14:18;;;;;;;68.90;31.73;;;;;;;17.26;55.83;96309.44;4987550;28;20389;-72
2021/10/08 00:16:43;;;;;;;66.95;30.45;;;;;;;17.49;55.25;96311.94;4979198;28;20081;-72
2021/10/08 00:19:09;;;;;;;64.03;30.88;;;;;;;17.59;54.80;96300.84;4986971;28;20702;-72
2021/10/08 00:21:34;;;;;;;68.40;31.05;;;;;;;17.68;54.59;96291.66;4987508;28;20077;-72
2021/10/08 00:23:59;;;;;;;52.30;28.10;;;;;;;17.76;54.46;96300.03;4987184;28;20484;-71
2021/10/08 00:26:25;;;;;;;46.78;27.00;;;;;;;17.89;54.49;96301.75;4983768;28;20035;-74
2021/10/08 00:28:50;;;;;;;48.63;27.05;;;;;;;17.93;54.35;96295.41;4968774;28;20466;-72
2021/10/08 00:31:15;;;;;;;48.53;27.38;;;;;;;18.05;53.80;96305.47;4981043;28;20121;-72
2021/10/08 00:33:41;;;;;;;48.05;27.45;;;;;;;18.07;53.52;96305.97;4992236;28;20081;-73
2021/10/08 00:36:06;;;;;;;42.35;26.00;;;;;;;17.92;53.51;96272.28;4992722;28;20484;-71
2021/10/08 00:38:32;;;;;;;36.92;24.30;;;;;;;18.12;53.51;96281.56;4990918;28;20089;-71
2021/10/08 00:40:58;;;;;;;42.33;25.20;;;;;;;18.29;53.53;96296.03;4990433;28;20030;-72
2021/10/08 00:43:24;;;;;;;40.78;25.77;;;;;;;18.21;53.00;96275.31;4972617;28;20094;-72
2021/10/08 00:45:50;;;;;;;40.30;25.52;;;;;;;18.34;52.81;96290.47;4980779;28;20396;-72
2021/10/08 00:48:16;;;;;;;46.15;25.25;;;;;;;18.34;52.54;96282.38;4990182;28;20108;-72
2021/10/08 00:50:46;;;;;;;46.67;27.52;;;;;;;18.41;52.50;96288.03;4991818;28;20468;-71
2021/10/08 00:53:12;;;;;;;38.65;25.08;;;;;;;18.39;52.40;96266.03;4992606;28;20019;-74
2021/10/08 00:55:49;;;;;;;39.03;24.02;;;;;;;18.40;52.12;96271.09;4990970;28;20050;-71
2021/10/08 00:58:16;;;;;;;36.70;23.42;;;;;;;18.45;52.06;96270.13;4972582;28;20043;-71
2021/10/08 01:00:44;;;;;;;37.03;24.42;;;;;;;18.51;51.94;96282.28;4979971;28;20041;-72
2021/10/08 01:03:10;;;;;;;48.30;26.95;;;;;;;18.48;52.00;96282.94;4989033;28;20095;-72
2021/10/08 01:05:37;;;;;;;38.88;25.60;;;;;;;18.37;52.16;96269.03;4991929;28;20022;-72
2021/10/08 01:08:04;;;;;;;34.13;23.75;;;;;;;18.54;51.83;96278.94;4992442;28;20400;-72
2021/10/08 01:10:30;;;;;;;36.22;24.20;;;;;;;18.64;51.79;96285.84;4990158;28;20088;-72
2021/10/08 01:12:56;;;;;;;34.50;24.23;;;;;;;18.69;51.38;96288.38;4974425;28;20073;-71
2021/10/08 01:15:21;;;;;;;38.67;25.15;;;;;;;18.68;51.31;96282.22;4980241;28;20042;-71
2021/10/08 01:17:53;;;;;;;25.67;19.75;;;;;;;18.72;50.97;96276.16;4984505;28;20053;-72
2021/10/08 01:20:20;;;;;;;27.75;22.02;;;;;;;18.72;50.75;96282.31;4993033;28;20488;-72
2021/10/08 01:22:46;;;;;;;26.88;18.98;;;;;;;18.72;50.47;96266.16;4989786;28;20038;-72
2021/10/08 01:25:11;;;;;;;29.27;21.05;;;;;;;18.75;50.47;96272.81;4991311;28;20039;-72
2021/10/08 01:27:37;;;;;;;31.45;20.50;;;;;;;18.75;50.70;96267.41;4977595;28;20031;-71
2021/10/08 01:30:03;;;;;;;29.98;21.33;;;;;;;18.82;50.46;96264.97;4994215;28;20039;-72
2021/10/08 01:32:30;;;;;;;28.13;20.83;;;;;;;18.68;50.48;96268.72;4984927;28;20035;-72
2021/10/08 01:34:56;;;;;;;22.85;19.30;;;;;;;18.77;50.33;96267.88;4991019;28;20034;-72
2021/10/08 01:37:22;;;;;;;25.63;20.17;;;;;;;18.78;49.70;96261.34;4989710;28;20129;-72
2021/10/08 01:39:48;;;;;;;25.02;20.40;;;;;;;18.45;49.48;96264.72;4990831;28;20452;-72
2021/10/08 01:42:13;;;;;;;26.20;21.00;;;;;;;18.37;50.38;96244.78;4980140;28;20030;-72
2021/10/08 01:44:40;;;;;;;33.58;21.88;;;;;;;18.57;50.33;96255.91;4976096;28;20029;-72
2021/10/08 01:47:05;;;;;;;26.48;20.58;;;;;;;18.68;50.56;96255.25;4984535;28;20058;-72
2021/10/08 01:49:31;;;;;;;28.35;20.42;;;;;;;18.65;50.31;96255.88;4971126;28;20512;-72
2021/10/08 01:51:58;;;;;;;32.92;22.67;;;;;;;18.65;50.42;96260.47;4971601;28;20039;-72
2021/10/08 01:54:24;;;;;;;32.33;21.50;;;;;;;18.72;50.06;96276.16;4969825;28;20031;-71
2021/10/08 01:56:49;;;;;;;28.27;20.38;;;;;;;18.73;50.23;96253.47;4969699;28;20033;-72
2021/10/08 01:59:15;;;;;;;27.55;20.67;;;;;;;18.29;50.02;96269.88;4972282;28;20473;-71
2021/10/08 02:01:42;;;;;;;23.35;20.15;;;;;;;17.54;52.18;96263.34;4970076;28;20043;-72
2021/10/08 02:04:07;;;;;;;34.45;22.58;;;;;;;18.07;51.43;96262.88;4983996;28;20046;-72
2021/10/08 02:06:33;;;;;;;38.70;24.08;;;;;;;18.21;51.35;96256.47;4991175;28;20039;-72
2021/10/08 02:08:59;;;;;;;37.28;22.55;;;;;;;18.32;50.87;96269.22;4991268;28;20034;-72
2021/10/08 02:11:25;;;;;;;41.45;26.10;;;;;;;18.14;50.87;96255.06;4991213;28;20388;-72
2021/10/08 02:13:50;;;;;;;41.80;25.10;;;;;;;18.22;51.03;96260.72;4971645;28;20047;-72
2021/10/08 02:16:19;;;;;;;31.85;23.45;;;;;;;18.35;51.09;96257.81;4971897;28;20408;-72
2021/10/08 02:18:45;;;;;;;34.20;24.00;;;;;;;17.93;50.78;96275.78;4971518;28;20093;-73
2021/10/08 02:21:10;;;;;;;41.88;25.17;;;;;;;18.03;51.10;96258.47;4971940;28;20042;-72
2021/10/08 02:23:36;;;;;;;32.58;22.15;;;;;;;18.09;50.90;96259.84;4971566;28;20489;-72
2021/10/08 02:26:01;;;;;;;37.60;24.98;;;;;;;17.76;51.67;96251.59;4973788;28;20037;-72
2021/10/08 02:28:26;;;;;;;42.13;26.17;;;;;;;18.09;51.33;96266.03;4971354;28;20477;-73
2021/10/08 02:30:52;;;;;;;37.58;24.50;;;;;;;17.99;51.15;96258.31;4971494;28;20138;-72
2021/10/08 02:33:17;;;;;;;40.75;25.30;;;;;;;18.16;51.19;96250.16;4971475;28;20504;-72
2021/10/08 02:35:42;;;;;;;34.67;24.27;;;;;;;18.27;51.22;96255.16;4971899;28;20097;-72
2021/10/08 02:38:08;;;;;;;34.35;23.88;;;;;;;18.40;50.90;96260.31;4973478;28;20125;-72
2021/10/08 02:40:33;;;;;;;43.20;25.67;;;;;;;18.47;50.39;96256.31;4971274;28;20110;-72
2021/10/08 02:42:59;;;;;;;32.67;23.30;;;;;;;18.48;50.06;96264.09;4973828;23;20458;-70
2021/10/08 02:45:25;;;;;;;42.72;24.10;;;;;;;18.18;50.36;96247.94;4960822;28;20070;-70
2021/10/08 02:47:50;;;;;;;33.58;23.08;;;;;;;18.09;50.46;96263.34;4956454;28;20054;-71
2021/10/08 02:50:16;;;;;;;33.25;23.52;;;;;;;18.15;50.76;96234.31;4990577;28;20091;-69
2021/10/08 02:52:41;;;;;;;33.05;24.17;;;;;;;18.17;50.37;96246.34;5005050;28;20085;-70
2021/10/08 02:55:07;;;;;;;42.08;25.90;;;;;;;18.26;50.51;96258.97;4988090;28;20772;-70
2021/10/08 02:57:39;;;;;;;31.88;21.80;;;;;;;18.35;50.29;96260.50;4982571;28;20049;-69
2021/10/08 03:00:06;;;;;;;41.83;25.08;;;;;;;18.31;50.26;96250.69;4969819;28;20042;-69
2021/10/08 03:02:32;;;;;;;34.10;24.33;;;;;;;18.34;50.44;96258.16;4950318;28;20114;-69
2021/10/08 03:04:57;;;;;;;32.50;22.98;;;;;;;18.33;49.93;96246.59;4933294;29;20115;-69
2021/10/08 03:07:22;;;;;;;35.42;24.63;;;;;;;18.05;50.49;96258.91;4946341;28;20035;-69
2021/10/08 03:09:48;;;;;;;44.85;27.35;;;;;;;18.12;50.54;96249.25;4964982;28;20116;-69
2021/10/08 03:12:13;;;;;;;40.03;25.50;;;;;;;18.41;50.97;96267.28;4956593;28;20519;-69
2021/10/08 03:14:39;;;;;;;37.90;25.25;;;;;;;17.65;50.96;96234.97;4968211;28;20022;-70
2021/10/08 03:17:04;;;;;;;37.80;25.80;;;;;;;17.47;52.58;96261.16;4950978;28;20023;-69
2021/10/08 03:19:30;;;;;;;45.45;27.13;;;;;;;17.58;52.34;96251.63;4945179;28;20089;-69
2021/10/08 03:21:55;;;;;;;50.85;28.92;;;;;;;17.44;52.73;96263.69;4939180;28;20043;-70
2021/10/08 03:24:21;;;;;;;57.92;30.65;;;;;;;17.47;52.89;96244.25;4937417;28;20071;-69
2021/10/08 03:26:46;;;;;;;41.55;27.23;;;;;;;16.55;54.77;96247.91;4954056;28;20138;-69
2021/10/08 03:29:11;;;;;;;43.42;28.73;;;;;;;17.34;53.85;96257.53;4973397;28;20106;-69
2021/10/08 03:31:37;;;;;;;44.28;28.60;;;;;;;16.95;54.27;96258.56;4968085;28;20034;-69
2021/10/08 03:34:02;;;;;;;41.65;27.60;;;;;;;17.02;54.33;96248.09;4957172;28;20573;-69
2021/10/08 03:36:41;;;;;;;47.72;29.25;;;;;;;16.69;55.04;96225.50;4950188;28;20494;-69
2021/10/08 03:39:08;;;;;;;42.83;28.30;;;;;;;16.02;57.10;96248.94;4954548;28;20038;-69
2021/10/08 03:41:34;;;;;;;47.10;29.05;;;;;;;16.64;55.72;96256.00;4969229;28;20038;-70
2021/10/08 03:44:02;;;;;;;42.60;27.90;;;;;;;16.74;54.52;96239.59;4970594;28;20023;-70
2021/10/08 03:46:32;;;;;;;43.17;27.40;;;;;;;16.82;54.55;96246.06;4967828;28;20059;-69
2021/10/08 03:49:12;;;;;;;40.70;27.83;;;;;;;17.23;53.65;96250.91;4980619;28;20045;-69
2021/10/08 03:51:38;;;;;;;38.78;25.83;;;;;;;17.08;53.63;96244.13;4988841;28;20038;-69
2021/10/08 03:54:04;;;;;;;48.38;28.63;;;;;;;16.89;53.98;96243.72;4988511;28;20173;-69
2021/10/08 03:56:30;;;;;;;43.15;26.35;;;;;;;17.37;53.23;96253.44;4990751;28;20101;-69
2021/10/08 03:58:57;;;;;;;40.42;27.23;;;;;;;17.54;52.79;96253.38;4969655;28;20031;-69
2021/10/08 04:01:23;;;;;;;34.20;25.77;;;;;;;17.82;52.27;96261.88;4979699;28;20170;-69
2021/10/08 04:03:49;;;;;;;35.08;26.30;;;;;;;18.03;51.88;96256.56;4987910;28;20133;-69
2021/10/08 04:06:15;;;;;;;43.22;28.17;;;;;;;18.16;51.28;96250.16;4988369;28;20038;-69
2021/10/08 04:08:42;;;;;;;40.20;28.13;;;;;;;18.33;51.17;96267.34;4986930;28;20030;-69
2021/10/08 04:11:08;;;;;;;35.75;26.05;;;;;;;17.46;51.79;96258.81;4990271;28;20030;-68
2021/10/08 04:13:34;;;;;;;38.05;26.05;;;;;;;16.65;54.26;96260.25;4973022;28;20042;-69
2021/10/08 04:15:59;;;;;;;45.42;27.60;;;;;;;16.88;54.32;96260.91;4968757;28;20031;-69
2021/10/08 04:18:25;;;;;;;35.28;26.00;;;;;;;17.38;53.18;96260.38;4975989;28;20034;-69
2021/10/08 04:20:50;;;;;;;34.45;26.27;;;;;;;17.06;53.45;96262.50;4986900;28;20031;-67
2021/10/08 04:23:16;;;;;;;36.53;25.52;;;;;;;17.49;52.78;96226.66;4989171;28;20110;-75
2021/10/08 04:25:42;;;;;;;35.83;26.08;;;;;;;18.00;52.18;96264.50;4988306;28;20369;-69
2021/10/08 04:28:08;;;;;;;37.40;26.10;;;;;;;18.18;51.54;96266.78;4976684;28;20057;-69
2021/10/08 04:30:34;;;;;;;34.58;25.95;;;;;;;18.31;50.88;96259.56;4966977;28;20039;-69
2021/10/08 04:32:59;;;;;;;34.42;25.05;;;;;;;18.39;50.72;96247.19;4966979;28;20456;-69
2021/10/08 04:35:25;;;;;;;35.67;25.45;;;;;;;18.49;50.44;96243.31;4970524;28;20545;-69
2021/10/08 04:37:50;;;;;;;42.50;27.10;;;;;;;18.47;50.26;96234.75;4968649;28;20493;-69
2021/10/08 04:40:16;;;;;;;32.20;25.02;;;;;;;18.42;49.99;96223.06;4968200;28;20035;-70
2021/10/08 04:42:41;;;;;;;34.20;23.92;;;;;;;18.60;49.75;96242.59;4967775;28;20105;-70
2021/10/08 04:45:07;;;;;;;31.38;25.63;;;;;;;18.62;49.93;96259.22;4969498;28;20098;-68
2021/10/08 04:47:33;;;;;;;40.55;26.60;;;;;;;18.65;49.92;96247.78;4967330;28;20090;-71
2021/10/08 04:49:58;;;;;;;31.95;24.17;;;;;;;18.63;49.76;96247.34;4970593;28;20023;-72
2021/10/08 04:52:24;;;;;;;32.13;24.15;;;;;;;18.58;49.97;96231.38;4984465;28;20496;-72
2021/10/08 04:54:49;;;;;;;30.30;24.00;;;;;;;18.69;49.77;96246.03;4987127;28;20034;-73
2021/10/08 04:57:15;;;;;;;27.00;22.45;;;;;;;18.65;49.70;96230.84;4984705;28;20057;-68
2021/10/08 04:59:40;;;;;;;33.63;24.98;;;;;;;18.75;49.62;96240.47;4968494;28;20027;-68
2021/10/08 05:02:06;;;;;;;27.67;23.85;;;;;;;18.67;49.53;96234.75;4970291;28;20030;-69
2021/10/08 05:04:31;;;;;;;33.25;25.55;;;;;;;18.67;49.89;96236.66;4952867;28;20039;-75
2021/10/08 05:06:56;;;;;;;30.80;25.23;;;;;;;18.79;49.68;96249.47;4960795;28;20601;-73
2021/10/08 05:09:22;;;;;;;29.70;22.77;;;;;;;18.86;49.52;96249.72;4968306;28;20038;-71
2021/10/08 05:11:47;;;;;;;30.00;24.08;;;;;;;18.99;49.61;96258.66;4966996;28;20030;-70
2021/10/08 05:14:13;;;;;;;36.58;23.25;;;;;;;19.00;49.65;96247.53;4969440;28;20023;-72
2021/10/08 05:16:39;;;;;;;32.03;24.00;;;;;;;18.89;49.04;96251.78;4977144;28;20435;-72
2021/10/08 05:19:06;;;;;;;34.90;24.40;;;;;;;18.87;49.51;96240.50;4970009;28;20434;-70
2021/10/08 05:21:31;;;;;;;31.10;23.58;;;;;;;18.92;49.39;96257.28;4971650;28;20374;-71
2021/10/08 05:23:57;;;;;;;45.10;28.25;;;;;;;18.87;49.38;96252.06;4971451;28;20050;-71
2021/10/08 05:26:22;;;;;;;34.88;26.38;;;;;;;18.70;49.56;96246.84;4973447;28;20389;-71
2021/10/08 05:28:48;;;;;;;50.58;28.17;;;;;;;18.44;49.58;96236.22;4970836;28;20047;-72
2021/10/08 05:31:13;;;;;;;41.65;27.92;;;;;;;18.38;50.02;96229.44;4978449;28;20129;-72
2021/10/08 05:33:39;;;;;;;46.15;27.42;;;;;;;18.30;50.03;96235.66;4969972;28;20035;-72
2021/10/08 05:36:04;;;;;;;39.38;27.92;;;;;;;18.33;49.84;96240.41;4971763;28;20042;-71
2021/10/08 05:38:29;;;;;;;42.17;27.55;;;;;;;18.29;50.17;96242.97;4973422;28;20027;-71
2021/10/08 05:40:55;;;;;;;41.80;26.50;;;;;;;18.25;50.01;96252.00;4971451;28;20035;-70
2021/10/08 05:43:21;;;;;;;47.05;27.20;;;;;;;18.46;49.63;96247.44;4970778;28;20577;-71
2021/10/08 05:45:47;;;;;;;46.35;28.17;;;;;;;18.54;49.99;96249.28;4971711;28;20050;-71
2021/10/08 05:48:12;;;;;;;47.05;28.65;;;;;;;18.55;49.55;96250.09;4987722;28;20096;-72
2021/10/08 05:50:38;;;;;;;48.72;29.23;;;;;;;18.49;49.62;96251.41;4971088;28;20031;-71
2021/10/08 05:53:05;;;;;;;48.05;30.00;;;;;;;18.35;50.08;96254.31;4972938;28;20489;-71
2021/10/08 05:55:31;;;;;;;55.83;29.55;;;;;;;18.17;50.33;96240.97;4971023;28;20527;-71
2021/10/08 05:57:56;;;;;;;51.17;30.60;;;;;;;18.13;50.69;96253.50;4966492;28;20035;-72
2021/10/08 06:00:22;;;;;;;55.88;29.42;;;;;;;18.34;50.52;96267.00;4958195;28;20031;-72
2021/10/08 06:02:48;;;;;;;45.85;29.20;;;;;;;18.32;50.56;96268.44;4970549;28;20029;-71
2021/10/08 06:05:13;;;;;;;54.03;28.90;;;;;;;18.43;50.15;96266.97;4972916;28;20031;-72
2021/10/08 06:07:38;;;;;;;47.00;28.48;;;;;;;18.33;50.48;96254.66;4971257;28;20039;-72
2021/10/08 06:10:04;;;;;;;51.78;29.75;;;;;;;18.47;49.88;96259.00;4970748;28;20374;-72
2021/10/08 06:12:30;;;;;;;51.35;29.42;;;;;;;18.43;50.15;96261.59;4970602;28;20409;-72
2021/10/08 06:14:55;;;;;;;46.78;29.08;;;;;;;18.41;50.37;96261.88;4970519;28;20051;-72
2021/10/08 06:17:20;;;;;;;50.08;30.75;;;;;;;18.23;50.30;96251.56;4972487;28;20026;-72
2021/10/08 06:19:46;;;;;;;50.08;30.17;;;;;;;18.40;50.26;96263.00;4970831;28;20049;-72
2021/10/08 06:22:11;;;;;;;53.17;30.60;;;;;;;18.22;50.54;96264.25;4983881;28;20493;-72
2021/10/08 06:24:37;;;;;;;56.47;31.75;;;;;;;18.29;50.72;96269.09;4989844;28;20108;-72
2021/10/08 06:27:02;;;;;;;43.10;28.05;;;;;;;18.47;50.45;96275.94;4989731;28;20041;-71
2021/10/08 06:29:28;;;;;;;45.13;29.50;;;;;;;18.43;50.42;96262.38;4973942;28;20039;-69
2021/10/08 06:31:53;;;;;;;49.88;30.05;;;;;;;18.74;49.93;96266.63;4970590;28;20551;-71
2021/10/08 06:34:19;;;;;;;54.47;30.60;;;;;;;18.79;49.81;96271.03;4968778;28;20066;-70
2021/10/08 06:36:44;;;;;;;42.20;27.75;;;;;;;18.70;49.36;96244.94;4970251;28;20034;-72
2021/10/08 06:39:10;;;;;;;47.17;28.35;;;;;;;18.95;49.23;96269.31;4969949;28;20065;-71
2021/10/08 06:41:36;;;;;;;44.92;27.52;;;;;;;18.51;49.60;96274.19;4970417;28;20023;-70
2021/10/08 06:44:03;;;;;;;43.83;27.25;;;;;;;18.85;49.50;96277.81;4970309;28;20027;-69
2021/10/08 06:46:28;;;;;;;50.85;29.40;;;;;;;18.97;49.35;96277.84;4968690;28;20038;-69
2021/10/08 06:48:54;;;;;;;43.95;27.52;;;;;;;18.82;49.18;96259.56;4974083;28;20410;-68
2021/10/08 06:51:19;;;;;;;44.05;25.85;;;;;;;19.06;49.09;96281.28;4970041;28;20038;-69
2021/10/08 06:53:45;;;;;;;36.08;26.95;;;;;;;18.99;49.07;96288.31;4970367;28;20377;-70
2021/10/08 06:56:10;;;;;;;39.38;26.25;;;;;;;18.77;49.18;96257.88;4972722;28;20030;-68
2021/10/08 06:58:36;;;;;;;37.80;27.00;;;;;;;19.03;49.00;96291.91;4968718;28;20058;-67
2021/10/08 07:01:01;;;;;;;38.22;27.08;;;;;;;19.51;48.31;96296.75;4969837;28;20031;-67
2021/10/08 07:03:26;;;;;;;40.60;26.35;;;;;;;19.53;48.05;96288.31;4976619;28;20508;-69
2021/10/08 07:05:52;;;;;;;43.17;28.00;;;;;;;19.31;48.56;96281.38;4969851;28;20035;-70
2021/10/08 07:08:17;;;;;;;36.13;26.55;;;;;;;19.04;48.25;96239.56;4986724;28;20035;-69
2021/10/08 07:10:43;;;;;;;39.75;26.85;;;;;;;19.26;48.08;96293.16;4969216;28;20031;-68
2021/10/08 07:13:09;;;;;;;34.78;25.52;;;;;;;19.22;48.47;96295.72;4967675;28;20077;-67
2021/10/08 07:15:34;;;;;;;42.63;26.55;;;;;;;19.17;48.38;96287.84;4969624;28;20046;-67
2021/10/08 07:18:01;;;;;;;36.55;26.02;;;;;;;19.10;48.82;96303.00;4976465;28;20039;-67
2021/10/08 07:20:28;;;;;;;41.83;27.35;;;;;;;18.85;49.41;96302.06;4971068;28;20099;-67
2021/10/08 07:22:55;;;;;;;32.85;25.45;;;;;;;18.98;49.08;96287.50;4968096;28;20047;-67
2021/10/08 07:25:26;;;;;;;37.85;26.35;;;;;;;18.85;49.45;96292.06;4969390;28;20045;-67
2021/10/08 07:27:51;;;;;;;41.15;26.58;;;;;;;18.92;49.38;96299.63;4969074;28;20050;-67
2021/10/08 07:30:18;;;;;;;33.95;25.08;;;;;;;19.12;49.10;96296.13;4968933;28;20042;-67
2021/10/08 07:32:45;;;;;;;36.92;27.75;;;;;;;18.88;49.36;96283.31;4977004;28;20026;-67
2021/10/08 07:35:11;;;;;;;37.58;26.02;;;;;;;18.94;49.21;96289.31;4988017;28;20038;-67
2021/10/08 07:37:37;;;;;;;38.38;27.48;;;;;;;18.96;49.35;96300.53;4987158;28;20038;-67
2021/10/08 07:40:04;;;;;;;36.55;26.58;;;;;;;18.80;49.53;96304.94;4986257;28;20114;-66
2021/10/08 07:42:30;;;;;;;38.47;25.15;;;;;;;19.12;49.16;96298.03;4988495;28;20077;-68
2021/10/08 07:44:55;;;;;;;41.85;27.05;;;;;;;18.78;49.81;96310.66;4969587;28;20081;-67
2021/10/08 07:47:20;;;;;;;40.55;28.02;;;;;;;18.81;49.39;96293.84;4970760;28;20501;-67
2021/10/08 07:49:46;;;;;;;41.53;27.35;;;;;;;19.23;49.03;96297.28;4983317;28;20050;-67
2021/10/08 07:52:11;;;;;;;38.28;27.85;;;;;;;19.09;49.00;96302.19;4997534;28;20483;-67
2021/10/08 07:54:37;;;;;;;43.53;28.65;;;;;;;19.43;48.76;96313.78;4988225;28;20039;-67
2021/10/08 07:57:03;;;;;;;37.85;28.02;;;;;;;19.26;48.64;96311.25;4988307;28;20069;-68
2021/10/08 07:59:29;;;;;;;38.55;26.67;;;;;;;19.60;48.26;96316.34;4973854;28;20034;-68
2021/10/08 08:01:55;;;;;;;41.97;28.88;;;;;;;19.12;48.58;96311.53;4967577;28;20092;-67
2021/10/08 08:04:20;;;;;;;41.88;28.17;;;;;;;19.27;48.72;96302.03;4968578;28;20046;-68
2021/10/08 08:06:45;;;;;;;38.40;26.65;;;;;;;19.41;48.34;96307.94;4978928;28;20157;-67
2021/10/08 08:09:11;;;;;;;36.60;25.90;;;;;;;19.66;48.27;96322.34;4986588;28;20038;-68
2021/10/08 08:11:36;;;;;;;36.25;25.40;;;;;;;19.83;48.24;96324.06;4986972;28;20587;-68
2021/10/08 08:14:02;;;;;;;36.53;24.60;;;;;;;20.03;48.01;96317.00;4977929;28;20089;-68
2021/10/08 08:16:28;;;;;;;32.28;24.20;;;;;;;20.06;47.56;96314.41;4968473;28;20049;-67
2021/10/08 08:18:53;;;;;;;34.97;24.90;;;;;;;20.09;47.26;96326.47;4974659;28;20057;-67
2021/10/08 08:21:20;;;;;;;31.60;23.40;;;;;;;19.58;47.88;96321.25;4986820;28;20169;-67
2021/10/08 08:23:46;;;;;;;36.28;24.98;;;;;;;19.89;47.45;96317.31;4985837;28;20142;-68
2021/10/08 08:26:11;;;;;;;30.30;23.73;;;;;;;19.94;47.51;96300.91;4989665;28;20715;-67
2021/10/08 08:28:37;;;;;;;28.67;21.60;;;;;;;19.77;47.44;96315.38;4981096;28;20047;-67
2021/10/08 08:31:02;;;;;;;34.03;24.33;;;;;;;20.08;47.37;96311.41;4968267;28;20393;-67
2021/10/08 08:33:28;;;;;;;35.45;23.55;;;;;;;19.87;47.14;96297.97;4979283;28;20069;-68
2021/10/08 08:35:54;;;;;;;37.58;23.30;;;;;;;20.04;46.87;96300.47;4987911;28;20057;-68
2021/10/08 08:38:19;;;;;;;32.95;22.63;;;;;;;19.94;46.94;96306.31;4989715;28;20122;-67
2021/10/08 08:40:45;;;;;;;38.55;25.65;;;;;;;19.94;47.28;96314.41;4988098;28;20543;-68
2021/10/08 08:43:10;;;;;;;33.03;23.33;;;;;;;20.16;46.92;96307.78;4997209;23;20054;-71
2021/10/08 08:45:35;;;;;;;35.72;23.13;;;;;;;20.35;46.49;96301.84;4963293;28;20047;-71
2021/10/08 08:48:09;;;;;;;38.13;24.92;;;;;;;20.33;46.43;96304.09;4957396;28;20043;-70
2021/10/08 08:50:42;;;;;;;32.65;23.70;;;;;;;20.24;46.32;96310.38;4931274;28;20541;-70
2021/10/08 08:53:07;;;;;;;33.97;23.90;;;;;;;20.45;46.32;96295.97;4935599;29;20027;-70
2021/10/08 08:55:34;;;;;;;32.90;22.38;;;;;;;20.48;46.08;96298.03;4933915;28;20156;-72
2021/10/08 08:58:00;;;;;;;38.58;24.67;;;;;;;20.50;46.03;96304.66;4932261;28;20118;-71
2021/10/08 09:00:25;;;;;;;33.75;23.35;;;;;;;20.55;46.28;96295.53;4952515;28;20126;-71
2021/10/08 09:03:03;;;;;;;37.78;25.27;;;;;;;20.39;46.51;96298.13;4958792;28;20397;-74
2021/10/08 09:05:29;;;;;;;39.92;26.45;;;;;;;20.49;46.47;96299.59;4954909;28;20570;-73
2021/10/08 09:08:08;;;;;;;38.28;26.45;;;;;;;20.10;47.11;96295.63;4952899;28;20047;-74
2021/10/08 09:10:36;;;;;;;37.78;25.05;;;;;;;20.13;47.39;96297.66;4951257;28;20442;-72
2021/10/08 09:13:03;;;;;;;37.38;26.40;;;;;;;19.96;47.96;96306.75;4948468;28;20106;-72
2021/10/08 09:15:43;;;;;;;42.00;26.83;;;;;;;19.77;48.46;96298.41;4950797;28;20039;-72
2021/10/08 09:18:11;;;;;;;32.53;24.83;;;;;;;19.30;49.13;96301.38;4941039;28;20051;-72
2021/10/08 09:20:38;;;;;;;33.15;23.85;;;;;;;19.73;49.16;96296.38;4951709;28;20034;-71
2021/10/08 09:23:05;;;;;;;30.95;22.50;;;;;;;19.92;48.23;96284.25;4954112;28;20020;-72
2021/10/08 09:25:34;;;;;;;30.90;22.92;;;;;;;19.85;48.55;96292.88;4952458;28;20039;-73
2021/10/08 09:28:10;;;;;;;29.63;21.65;;;;;;;20.12;48.14;96286.06;4967072;28;20102;-68
2021/10/08 09:30:37;;;;;;;36.70;23.33;;;;;;;19.16;50.33;96294.34;4957270;28;20516;-72
2021/10/08 09:33:08;;;;;;;32.60;23.27;;;;;;;19.36;50.79;96286.56;4952119;28;20097;-72
2021/10/08 09:35:35;;;;;;;29.95;22.65;;;;;;;19.07;51.62;96284.75;4945095;28;20031;-72
2021/10/08 09:38:06;;;;;;;32.53;21.50;;;;;;;19.21;51.61;96294.16;4954530;28;20020;-72
2021/10/08 09:40:43;;;;;;;28.77;18.15;;;;;;;18.42;52.75;96276.13;4952117;28;20047;-73
2021/10/08 09:43:26;;;;;;;19.27;15.82;;;;;;;18.56;52.06;96276.69;4951984;28;20389;-72
2021/10/08 09:45:55;;;;;;;16.15;13.57;;;;;;;19.47;50.06;96285.81;4953204;28;20039;-72
2021/10/08 09:48:23;;;;;;;13.75;12.25;;;;;;;18.70;51.59;96273.78;4953199;28;20032;-73
2021/10/08 09:50:57;;;;;;;13.70;12.30;;;;;;;18.89;51.41;96282.22;4951700;28;20089;-72
2021/10/08 09:53:23;;;;;;;13.43;12.13;;;;;;;19.02;51.69;96277.66;4954085;28;20030;-73
2021/10/08 09:55:50;;;;;;;12.73;11.57;;;;;;;19.74;49.65;96278.25;4950241;28;20039;-72
2021/10/08 09:58:15;;;;;;;11.10;10.10;;;;;;;20.60;47.52;96281.78;4951546;28;20085;-73
2021/10/08 10:01:00;;;;;;;12.40;11.18;;;;;;;20.89;47.15;96277.25;4959243;28;20108;-73
2021/10/08 10:03:27;;;;;;;10.02;9.07;;;;;;;20.38;47.95;96268.75;4956271;28;20058;-73
2021/10/08 10:05:52;;;;;;;11.80;10.73;;;;;;;21.03;46.56;96264.88;4950963;28;20028;-73
2021/10/08 10:08:18;;;;;;;10.00;8.98;;;;;;;21.11;45.43;96262.41;4954190;28;20486;-72
2021/10/08 10:10:45;;;;;;;8.82;8.02;;;;;;;19.77;48.35;96282.22;4951348;28;20542;-72
2021/10/08 10:13:12;;;;;;;8.93;8.13;;;;;;;20.34;47.76;96284.84;4951723;28;20039;-73
2021/10/08 10:15:44;;;;;;;9.35;8.55;;;;;;;21.58;45.65;96275.28;4959065;28;20102;-73
2021/10/08 10:18:14;;;;;;;8.88;8.18;;;;;;;21.87;44.47;96263.28;4958506;28;20520;-73
2021/10/08 10:20:47;;;;;;;8.55;7.82;;;;;;;21.41;45.28;96274.47;4951442;28;20031;-73
2021/10/08 10:23:15;;;;;;;9.52;8.73;;;;;;;21.50;44.33;96275.13;4952377;28;20098;-73
2021/10/08 10:25:41;;;;;;;10.07;9.20;;;;;;;20.87;45.77;96264.03;4951910;28;20039;-73
2021/10/08 10:28:06;;;;;;;9.82;8.93;;;;;;;20.93;45.83;96273.50;4951526;28;20047;-72
2021/10/08 10:30:34;;;;;;;10.23;9.25;;;;;;;20.64;46.35;96276.50;4958310;28;20039;-73
2021/10/08 10:33:01;;;;;;;11.27;10.35;;;;;;;20.80;46.17;96268.47;4966121;28;20043;-73
2021/10/08 10:35:44;;;;;;;11.38;10.48;;;;;;;20.85;45.98;96270.94;4953469;28;20023;-74
2021/10/08 10:38:24;;;;;;;10.68;9.88;;;;;;;19.63;48.13;96274.41;4966920;28;20031;-73
2021/10/08 10:41:08;;;;;;;12.30;10.60;;;;;;;20.05;47.71;96275.03;4951085;28;20106;-73
2021/10/08 10:43:44;;;;;;;11.73;10.73;;;;;;;19.45;48.70;96271.88;4933354;28;20514;-76
2021/10/08 10:46:48;;;;;;;11.90;11.00;;;;;;;20.21;47.51;96270.53;4940761;28;20044;-75
2021/10/08 10:49:18;;;;;;;11.55;10.55;;;;;;;20.57;46.81;96265.47;4959772;28;20126;-75
2021/10/08 10:51:55;;;;;;;11.82;10.85;;;;;;;21.21;45.82;96273.50;4950179;28;20036;-75
2021/10/08 10:54:48;;;;;;;10.30;9.50;;;;;;;20.40;47.03;96271.88;4943374;28;20702;-75
2021/10/08 10:57:20;;;;;;;11.05;9.07;;;;;;;21.41;44.69;96265.56;4937821;28;20071;-73
2021/10/08 10:59:46;;;;;;;10.27;9.48;;;;;;;20.16;47.21;96270.75;4950289;28;20024;-75
2021/10/08 11:02:14;;;;;;;10.38;9.57;;;;;;;20.00;47.33;96277.94;4967525;28;20026;-75
2021/10/08 11:04:54;;;;;;;10.77;9.77;;;;;;;20.41;46.49;96270.75;4953987;28;20090;-74
2021/10/08 11:07:23;;;;;;;9.65;8.85;;;;;;;21.36;45.38;96279.34;4936508;28;20039;-74
2021/10/08 11:10:04;;;;;;;10.10;9.30;;;;;;;21.92;43.59;96273.84;4931275;28;20047;-73
2021/10/08 11:12:34;;;;;;;10.10;9.07;;;;;;;21.85;43.20;96262.81;4931603;28;20035;-73
2021/10/08 11:15:15;;;;;;;9.95;9.15;;;;;;;21.79;42.64;96273.13;4937038;28;20421;-71
2021/10/08 11:17:48;;;;;;;11.38;10.40;;;;;;;21.91;43.15;96256.03;4931049;28;20027;-73